sensor_id;sensor_type;location;lat;lon;timestamp;P1;durP1;ratioP1;P2;durP2;ratioP2
71162;SDS011;58858;50.948;6.566;2023-03-01T00:02:20;7.85;;;5.03;;
71162;SDS011;58858;50.948;6.566;2023-03-01T00:12:21;9.02;;;5.25;;
71162;SDS011;58858;50.948;6.566;2023-03-01T00:22:22;9.57;;;5.22;;
71162;SDS011;58858;50.948;6.566;2023-03-01T00:32:52;13.50;;;5.93;;
71162;SDS011;58858;50.948;6.566;2023-03-01T00:42:53;17.42;;;7.00;;
71162;SDS011;58858;50.948;6.566;2023-03-01T00:52:54;13.23;;;7.03;;
71162;SDS011;58858;50.948;6.566;2023-03-01T01:02:56;10.07;;;5.40;;
71162;SDS011;58858;50.948;6.566;2023-03-01T01:12:57;7.45;;;5.05;;
71162;SDS011;58858;50.948;6.566;2023-03-01T01:22:58;12.95;;;7.18;;
71162;SDS011;58858;50.948;6.566;2023-03-01T01:32:59;13.32;;;5.57;;
71162;SDS011;58858;50.948;6.566;2023-03-01T01:43:00;12.55;;;6.90;;
71162;SDS011;58858;50.948;6.566;2023-03-01T01:53:02;10.18;;;5.90;;
71162;SDS011;58858;50.948;6.566;2023-03-01T02:03:04;8.20;;;5.53;;
71162;SDS011;58858;50.948;6.566;2023-03-01T02:13:09;12.73;;;6.30;;
71162;SDS011;58858;50.948;6.566;2023-03-01T02:23:10;9.40;;;5.75;;
71162;SDS011;58858;50.948;6.566;2023-03-01T02:33:11;10.80;;;5.80;;
71162;SDS011;58858;50.948;6.566;2023-03-01T02:43:12;11.10;;;6.75;;
71162;SDS011;58858;50.948;6.566;2023-03-01T02:53:16;10.30;;;6.43;;
71162;SDS011;58858;50.948;6.566;2023-03-01T03:03:23;9.68;;;5.93;;
71162;SDS011;58858;50.948;6.566;2023-03-01T03:13:24;12.35;;;6.60;;
71162;SDS011;58858;50.948;6.566;2023-03-01T03:33:30;9.35;;;5.97;;
71162;SDS011;58858;50.948;6.566;2023-03-01T03:43:32;13.05;;;7.63;;
71162;SDS011;58858;50.948;6.566;2023-03-01T03:53:34;12.60;;;7.10;;
71162;SDS011;58858;50.948;6.566;2023-03-01T04:03:35;14.88;;;6.78;;
71162;SDS011;58858;50.948;6.566;2023-03-01T04:13:36;13.63;;;8.05;;
71162;SDS011;58858;50.948;6.566;2023-03-01T04:23:37;12.52;;;7.63;;
71162;SDS011;58858;50.948;6.566;2023-03-01T04:33:40;12.15;;;6.47;;
71162;SDS011;58858;50.948;6.566;2023-03-01T04:43:46;20.55;;;9.35;;
71162;SDS011;58858;50.948;6.566;2023-03-01T04:53:47;12.88;;;8.00;;
71162;SDS011;58858;50.948;6.566;2023-03-01T05:03:49;16.10;;;9.40;;
71162;SDS011;58858;50.948;6.566;2023-03-01T05:13:51;11.50;;;8.18;;
71162;SDS011;58858;50.948;6.566;2023-03-01T05:23:55;14.70;;;8.03;;
71162;SDS011;58858;50.948;6.566;2023-03-01T05:33:56;19.98;;;9.68;;
71162;SDS011;58858;50.948;6.566;2023-03-01T05:43:57;12.35;;;8.02;;
71162;SDS011;58858;50.948;6.566;2023-03-01T05:53:58;17.27;;;8.93;;
71162;SDS011;58858;50.948;6.566;2023-03-01T06:04:00;16.58;;;9.65;;
71162;SDS011;58858;50.948;6.566;2023-03-01T06:14:02;18.27;;;8.35;;
71162;SDS011;58858;50.948;6.566;2023-03-01T06:24:04;13.75;;;8.85;;
71162;SDS011;58858;50.948;6.566;2023-03-01T06:34:06;16.58;;;9.80;;
71162;SDS011;58858;50.948;6.566;2023-03-01T06:44:07;17.35;;;9.65;;
71162;SDS011;58858;50.948;6.566;2023-03-01T06:54:08;13.73;;;8.98;;
71162;SDS011;58858;50.948;6.566;2023-03-01T07:04:13;18.63;;;10.80;;
71162;SDS011;58858;50.948;6.566;2023-03-01T07:14:14;15.82;;;9.63;;
71162;SDS011;58858;50.948;6.566;2023-03-01T07:24:15;15.55;;;9.77;;
71162;SDS011;58858;50.948;6.566;2023-03-01T07:34:16;15.18;;;10.38;;
71162;SDS011;58858;50.948;6.566;2023-03-01T07:44:17;16.48;;;10.88;;
71162;SDS011;58858;50.948;6.566;2023-03-01T07:54:18;15.45;;;10.40;;
71162;SDS011;58858;50.948;6.566;2023-03-01T08:04:19;14.75;;;9.77;;
71162;SDS011;58858;50.948;6.566;2023-03-01T08:14:20;19.08;;;10.85;;
71162;SDS011;58858;50.948;6.566;2023-03-01T08:24:21;16.25;;;10.27;;
71162;SDS011;58858;50.948;6.566;2023-03-01T08:34:23;19.92;;;11.10;;
71162;SDS011;58858;50.948;6.566;2023-03-01T08:44:24;14.98;;;9.07;;
71162;SDS011;58858;50.948;6.566;2023-03-01T08:54:25;21.05;;;10.20;;
71162;SDS011;58858;50.948;6.566;2023-03-01T09:04:26;13.00;;;8.80;;
71162;SDS011;58858;50.948;6.566;2023-03-01T09:14:27;16.35;;;10.13;;
71162;SDS011;58858;50.948;6.566;2023-03-01T09:24:29;15.40;;;9.40;;
71162;SDS011;58858;50.948;6.566;2023-03-01T09:34:30;14.05;;;9.80;;
71162;SDS011;58858;50.948;6.566;2023-03-01T09:54:40;13.43;;;9.23;;
71162;SDS011;58858;50.948;6.566;2023-03-01T10:15:06;14.48;;;9.32;;
71162;SDS011;58858;50.948;6.566;2023-03-01T10:25:13;13.30;;;9.70;;
71162;SDS011;58858;50.948;6.566;2023-03-01T10:35:17;13.63;;;9.15;;
71162;SDS011;58858;50.948;6.566;2023-03-01T10:55:42;14.88;;;9.40;;
71162;SDS011;58858;50.948;6.566;2023-03-01T11:05:50;13.13;;;7.50;;
71162;SDS011;58858;50.948;6.566;2023-03-01T11:16:10;12.23;;;7.95;;
71162;SDS011;58858;50.948;6.566;2023-03-01T11:26:13;10.20;;;7.10;;
71162;SDS011;58858;50.948;6.566;2023-03-01T11:36:27;13.50;;;8.38;;
71162;SDS011;58858;50.948;6.566;2023-03-01T11:56:34;12.95;;;7.32;;
71162;SDS011;58858;50.948;6.566;2023-03-01T12:06:46;12.37;;;8.67;;
71162;SDS011;58858;50.948;6.566;2023-03-01T12:17:00;16.33;;;8.98;;
71162;SDS011;58858;50.948;6.566;2023-03-01T12:27:33;13.55;;;8.55;;
71162;SDS011;58858;50.948;6.566;2023-03-01T12:58:30;13.82;;;8.25;;
71162;SDS011;58858;50.948;6.566;2023-03-01T13:08:48;12.13;;;7.55;;
71162;SDS011;58858;50.948;6.566;2023-03-01T13:19:05;11.63;;;7.38;;
71162;SDS011;58858;50.948;6.566;2023-03-01T13:29:25;13.07;;;7.70;;
71162;SDS011;58858;50.948;6.566;2023-03-01T13:39:28;12.13;;;7.90;;
71162;SDS011;58858;50.948;6.566;2023-03-01T13:49:56;15.25;;;9.57;;
71162;SDS011;58858;50.948;6.566;2023-03-01T14:00:01;14.68;;;7.47;;
71162;SDS011;58858;50.948;6.566;2023-03-01T14:10:05;11.82;;;7.55;;
71162;SDS011;58858;50.948;6.566;2023-03-01T14:20:17;11.90;;;7.50;;
71162;SDS011;58858;50.948;6.566;2023-03-01T14:30:21;11.27;;;7.60;;
71162;SDS011;58858;50.948;6.566;2023-03-01T14:40:35;9.52;;;6.15;;
71162;SDS011;58858;50.948;6.566;2023-03-01T14:50:40;9.38;;;6.35;;
71162;SDS011;58858;50.948;6.566;2023-03-01T15:00:46;7.68;;;5.63;;
71162;SDS011;58858;50.948;6.566;2023-03-01T15:11:04;11.45;;;6.45;;
71162;SDS011;58858;50.948;6.566;2023-03-01T15:21:17;12.25;;;6.32;;
71162;SDS011;58858;50.948;6.566;2023-03-01T15:31:28;12.85;;;6.95;;
71162;SDS011;58858;50.948;6.566;2023-03-01T15:41:36;10.77;;;6.32;;
71162;SDS011;58858;50.948;6.566;2023-03-01T15:51:39;9.48;;;5.97;;
71162;SDS011;58858;50.948;6.566;2023-03-01T16:01:43;12.63;;;5.68;;
71162;SDS011;58858;50.948;6.566;2023-03-01T16:11:45;10.20;;;6.18;;
71162;SDS011;58858;50.948;6.566;2023-03-01T16:21:46;9.07;;;6.35;;
71162;SDS011;58858;50.948;6.566;2023-03-01T16:31:49;11.50;;;6.57;;
71162;SDS011;58858;50.948;6.566;2023-03-01T16:41:50;10.68;;;5.95;;
71162;SDS011;58858;50.948;6.566;2023-03-01T16:51:53;11.18;;;6.10;;
71162;SDS011;58858;50.948;6.566;2023-03-01T17:01:54;9.40;;;5.97;;
71162;SDS011;58858;50.948;6.566;2023-03-01T17:11:55;11.60;;;5.72;;
71162;SDS011;58858;50.948;6.566;2023-03-01T17:21:56;13.65;;;6.07;;
71162;SDS011;58858;50.948;6.566;2023-03-01T17:31:57;10.73;;;5.97;;
71162;SDS011;58858;50.948;6.566;2023-03-01T17:41:58;11.57;;;6.15;;
71162;SDS011;58858;50.948;6.566;2023-03-01T17:52:00;10.52;;;5.68;;
71162;SDS011;58858;50.948;6.566;2023-03-01T18:02:01;10.10;;;5.88;;
71162;SDS011;58858;50.948;6.566;2023-03-01T18:12:02;10.90;;;5.50;;
71162;SDS011;58858;50.948;6.566;2023-03-01T18:22:03;13.95;;;5.70;;
71162;SDS011;58858;50.948;6.566;2023-03-01T18:32:05;8.77;;;5.53;;
71162;SDS011;58858;50.948;6.566;2023-03-01T18:42:07;9.88;;;5.57;;
71162;SDS011;58858;50.948;6.566;2023-03-01T18:52:08;12.60;;;7.45;;
71162;SDS011;58858;50.948;6.566;2023-03-01T19:02:10;9.85;;;5.75;;
71162;SDS011;58858;50.948;6.566;2023-03-01T19:12:11;8.65;;;5.28;;
71162;SDS011;58858;50.948;6.566;2023-03-01T19:22:12;9.18;;;5.88;;
71162;SDS011;58858;50.948;6.566;2023-03-01T19:32:13;11.65;;;5.68;;
71162;SDS011;58858;50.948;6.566;2023-03-01T19:42:17;11.68;;;7.00;;
71162;SDS011;58858;50.948;6.566;2023-03-01T19:52:18;12.50;;;5.63;;
71162;SDS011;58858;50.948;6.566;2023-03-01T20:02:19;16.77;;;6.85;;
71162;SDS011;58858;50.948;6.566;2023-03-01T20:12:20;18.30;;;5.65;;
71162;SDS011;58858;50.948;6.566;2023-03-01T20:22:21;11.32;;;6.18;;
71162;SDS011;58858;50.948;6.566;2023-03-01T20:32:23;11.13;;;6.13;;
71162;SDS011;58858;50.948;6.566;2023-03-01T20:42:24;10.80;;;6.60;;
71162;SDS011;58858;50.948;6.566;2023-03-01T20:52:25;12.73;;;6.13;;
71162;SDS011;58858;50.948;6.566;2023-03-01T21:02:26;11.43;;;6.63;;
71162;SDS011;58858;50.948;6.566;2023-03-01T21:12:27;11.52;;;6.60;;
71162;SDS011;58858;50.948;6.566;2023-03-01T21:22:28;11.05;;;7.18;;
71162;SDS011;58858;50.948;6.566;2023-03-01T21:32:32;10.98;;;6.70;;
71162;SDS011;58858;50.948;6.566;2023-03-01T21:42:34;11.30;;;6.43;;
71162;SDS011;58858;50.948;6.566;2023-03-01T21:52:35;11.60;;;6.75;;
71162;SDS011;58858;50.948;6.566;2023-03-01T22:02:37;12.82;;;6.35;;
71162;SDS011;58858;50.948;6.566;2023-03-01T22:12:38;12.35;;;6.95;;
71162;SDS011;58858;50.948;6.566;2023-03-01T22:22:39;12.65;;;6.97;;
71162;SDS011;58858;50.948;6.566;2023-03-01T22:32:40;12.30;;;7.75;;
71162;SDS011;58858;50.948;6.566;2023-03-01T22:42:42;14.65;;;7.97;;
71162;SDS011;58858;50.948;6.566;2023-03-01T22:52:43;16.73;;;8.48;;
71162;SDS011;58858;50.948;6.566;2023-03-01T23:02:44;18.73;;;8.98;;
71162;SDS011;58858;50.948;6.566;2023-03-01T23:12:45;17.45;;;8.88;;
71162;SDS011;58858;50.948;6.566;2023-03-01T23:22:46;18.80;;;9.15;;
71162;SDS011;58858;50.948;6.566;2023-03-01T23:32:49;15.60;;;7.95;;
71162;SDS011;58858;50.948;6.566;2023-03-01T23:42:52;12.95;;;7.72;;
71162;SDS011;58858;50.948;6.566;2023-03-01T23:52:53;15.63;;;7.60;;
